Time;durP1;ratioP1;P1;durP2;ratioP2;P2;SDS_P1;SDS_P2;PMS_P1;PMS_P2;Temp;Humidity;BMP_temperature;BMP_pressure;BME280_temperature;BME280_humidity;BME280_pressure;Samples;Min_cycle;Max_cycle;Signal;HPM_P1;HPM_P2
2023/11/24 00:01:06;;;;;;;24.30;12.40;;;;;;;2.33;85.47;97618.84;82047;1295;3011295;-69
2023/11/24 00:03:34;;;;;;;23.60;12.80;;;;;;;2.09;86.76;97620.21;80787;1295;3049089;-68
2023/11/24 00:06:00;;;;;;;21.10;10.70;;;;;;;2.15;87.00;97610.05;82068;1299;3012891;-73
2023/11/24 00:08:27;;;;;;;22.00;12.20;;;;;;;2.69;86.13;97607.98;82047;1295;3010882;-73
2023/11/24 00:10:55;;;;;;;20.30;11.60;;;;;;;2.82;84.39;97596.71;80787;1299;3026299;-70
2023/11/24 00:13:22;;;;;;;24.20;11.10;;;;;;;2.72;84.48;97585.48;82047;1295;3012743;-72
2023/11/24 00:15:51;;;;;;;21.50;11.60;;;;;;;2.90;83.94;97582.91;82066;1295;3011364;-67
2023/11/24 00:18:21;;;;;;;20.40;11.90;;;;;;;2.53;84.63;97569.16;80761;1295;3049324;-71
2023/11/24 00:20:47;;;;;;;24.60;12.50;;;;;;;2.26;85.55;97571.89;82036;1295;3012526;-69
2023/11/24 00:23:15;;;;;;;24.10;12.70;;;;;;;2.28;85.87;97569.91;82085;1295;3011208;-71
2023/11/24 00:25:43;;;;;;;19.10;10.40;;;;;;;1.98;87.12;97555.16;80781;1300;3052142;-69
2023/11/24 00:28:10;;;;;;;15.70;9.50;;;;;;;1.92;87.72;97559.68;82054;1295;3012647;-72
2023/11/24 00:30:37;;;;;;;20.90;11.20;;;;;;;2.75;86.56;97559.22;82030;1296;3011534;-72
2023/11/24 00:33:05;;;;;;;20.60;11.90;;;;;;;2.53;85.14;97569.65;80791;1295;3027044;-71
2023/11/24 00:35:32;;;;;;;22.10;11.00;;;;;;;2.55;85.60;97558.52;82040;1296;3018681;-70
2023/11/24 00:37:59;;;;;;;23.00;12.20;;;;;;;2.55;85.31;97555.23;82030;1295;3011272;-71
2023/11/24 00:40:27;;;;;;;21.20;11.00;;;;;;;2.37;85.87;97547.77;80732;1299;3052216;-72
2023/11/24 00:42:55;;;;;;;20.80;11.70;;;;;;;2.47;85.00;97537.17;82022;1301;3012383;-69
2023/11/24 00:45:21;;;;;;;25.50;13.00;;;;;;;2.24;86.18;97530.21;82069;1296;3011207;-69
2023/11/24 00:47:49;;;;;;;20.60;11.80;;;;;;;2.23;85.90;97530.31;80709;1295;3048179;-72
2023/11/24 00:50:17;;;;;;;15.20;8.40;;;;;;;2.09;87.44;97517.75;82057;1295;3013024;-73
2023/11/24 00:52:43;;;;;;;19.80;10.60;;;;;;;3.13;85.43;97514.88;81995;1295;3011088;-70
2023/11/24 00:55:11;;;;;;;21.00;11.40;;;;;;;3.50;81.32;97514.23;80735;1300;3052819;-70
2023/11/24 00:57:38;;;;;;;18.50;11.10;;;;;;;3.18;82.12;97523.96;82082;1299;3012644;-69
2023/11/24 01:00:08;;;;;;;15.10;8.80;;;;;;;2.97;83.00;97513.10;82051;1295;3011755;-70
2023/11/24 01:02:39;;;;;;;22.40;10.80;;;;;;;2.94;82.82;97515.39;80791;1295;3049028;-69
2023/11/24 01:05:08;;;;;;;16.60;9.60;;;;;;;2.63;83.88;97498.21;82026;1301;3011173;-69
2023/11/24 01:07:36;;;;;;;21.40;11.10;;;;;;;2.36;84.88;97489.41;80703;1295;3049174;-70
2023/11/24 01:10:03;;;;;;;20.70;10.50;;;;;;;2.38;85.46;97502.48;82074;1300;3011261;-69
2023/11/24 01:12:31;;;;;;;23.10;12.00;;;;;;;2.41;85.07;97486.95;82034;1295;3011482;-71
2023/11/24 01:15:00;;;;;;;18.60;8.90;;;;;;;2.44;85.03;97481.73;80770;1295;3050707;-73
2023/11/24 01:17:27;;;;;;;18.10;10.00;;;;;;;2.84;84.60;97484.52;82082;1295;3012642;-69
2023/11/24 01:19:54;;;;;;;15.90;8.20;;;;;;;3.33;82.61;97475.13;82023;1296;3011740;-75
2023/11/24 01:22:24;;;;;;;19.50;10.40;;;;;;;3.41;81.72;97473.94;80768;1295;3049107;-70
2023/11/24 01:24:51;;;;;;;16.60;10.30;;;;;;;3.37;81.34;97470.18;82054;1295;3012822;-72
2023/11/24 01:27:18;;;;;;;20.60;11.10;;;;;;;3.13;81.85;97461.11;82078;1300;3011322;-69
2023/11/24 01:29:46;;;;;;;19.20;11.20;;;;;;;3.07;81.99;97455.60;80712;1296;3049986;-71
2023/11/24 01:32:13;;;;;;;20.70;11.60;;;;;;;2.88;82.59;97453.00;82033;1300;3018054;-70
2023/11/24 01:34:39;;;;;;;27.70;12.70;;;;;;;2.75;83.05;97448.91;82052;1295;3011240;-72
2023/11/24 01:37:08;;;;;;;21.80;11.50;;;;;;;2.70;83.27;97452.36;80769;1300;3026023;-69
2023/11/24 01:39:34;;;;;;;17.50;9.90;;;;;;;2.42;84.60;97450.40;82071;1295;3012617;-73
2023/11/24 01:42:01;;;;;;;21.10;12.20;;;;;;;2.96;84.59;97438.79;82036;1295;3011374;-72
2023/11/24 01:44:29;;;;;;;16.70;9.80;;;;;;;3.21;82.78;97436.77;80784;1295;3026912;-74
2023/11/24 01:46:56;;;;;;;23.80;12.10;;;;;;;3.40;81.57;97428.80;82059;1295;3018052;-70
2023/11/24 01:49:23;;;;;;;25.50;12.90;;;;;;;3.22;81.76;97426.33;82040;1295;3011418;-68
2023/11/24 01:51:53;;;;;;;21.80;12.20;;;;;;;3.13;81.80;97416.50;80770;1295;3049020;-73
2023/11/24 01:54:20;;;;;;;24.50;11.20;;;;;;;2.79;83.20;97420.83;82047;1295;3011480;-69
2023/11/24 01:56:49;;;;;;;15.70;10.20;;;;;;;2.68;83.70;97407.88;81556;1295;3011248;-72
2023/11/24 01:59:16;;;;;;;19.40;11.10;;;;;;;2.66;83.93;97410.44;81930;1297;3018435;-70
2023/11/24 02:01:43;;;;;;;21.40;11.90;;;;;;;2.44;84.81;97403.79;81913;1295;3011352;-71
2023/11/24 02:04:11;;;;;;;18.20;9.60;;;;;;;2.36;85.70;97396.31;80735;1295;3048157;-71
2023/11/24 02:06:38;;;;;;;18.20;9.00;;;;;;;2.94;84.88;97390.02;82071;1295;3013225;-73
2023/11/24 02:09:05;;;;;;;17.90;9.90;;;;;;;3.51;82.26;97369.98;82021;1295;3011306;-70
2023/11/24 02:11:33;;;;;;;16.90;8.50;;;;;;;3.53;81.36;97377.77;80804;1300;3026288;-74
2023/11/24 02:14:00;;;;;;;18.70;9.30;;;;;;;3.42;80.51;97368.63;82049;1295;3018023;-71
2023/11/24 02:16:26;;;;;;;20.40;11.10;;;;;;;3.24;81.35;97364.45;81997;1295;3011377;-70
2023/11/24 02:18:54;;;;;;;19.20;10.60;;;;;;;3.08;81.51;97365.73;80754;1299;3026909;-72
2023/11/24 02:21:21;;;;;;;21.30;10.50;;;;;;;2.72;83.17;97377.53;82028;1295;3013840;-69
2023/11/24 02:23:50;;;;;;;21.20;10.60;;;;;;;2.61;83.90;97376.70;81958;1295;3011400;-70
2023/11/24 02:26:18;;;;;;;18.90;9.80;;;;;;;2.62;83.93;97370.89;80789;1295;3050610;-73
2023/11/24 02:28:44;;;;;;;15.50;10.10;;;;;;;2.49;84.75;97368.59;82082;1295;3012525;-70
2023/11/24 02:31:11;;;;;;;17.10;9.50;;;;;;;3.20;83.54;97369.33;81955;1295;3011290;-69
2023/11/24 02:33:40;;;;;;;16.20;9.20;;;;;;;3.64;81.09;97370.52;80788;1295;3025960;-69
2023/11/24 02:36:16;;;;;;;19.80;10.00;;;;;;;3.57;80.43;97362.45;81999;1295;3011321;-70
2023/11/24 02:38:49;;;;;;;21.70;9.90;;;;;;;3.51;80.88;97371.16;80746;1299;3051784;-69
2023/11/24 02:41:20;;;;;;;19.20;10.50;;;;;;;3.11;81.50;97362.95;82024;1295;3011480;-69
2023/11/24 02:43:49;;;;;;;21.80;10.30;;;;;;;2.80;83.30;97364.23;80808;1295;3069062;-73
2023/11/24 02:46:16;;;;;;;17.90;9.90;;;;;;;2.79;83.65;97359.14;82074;1296;3012939;-70
2023/11/24 02:48:43;;;;;;;18.10;10.00;;;;;;;2.79;83.23;97369.48;82051;1295;3011445;-71
2023/11/24 02:51:11;;;;;;;11.90;7.40;;;;;;;2.85;82.88;97351.81;80715;1296;3052706;-69
2023/11/24 02:53:39;;;;;;;15.60;8.50;;;;;;;3.29;82.81;97354.05;82075;1297;3018111;-71
2023/11/24 02:56:06;;;;;;;13.70;8.50;;;;;;;4.05;78.90;97340.05;82068;1295;3011690;-73
2023/11/24 02:58:36;;;;;;;13.40;7.40;;;;;;;3.77;79.44;97340.19;80813;1295;3068413;-72
2023/11/24 03:01:05;;;;;;;14.10;7.10;;;;;;;3.76;79.04;97339.77;81977;1296;3011420;-71
2023/11/24 03:03:33;;;;;;;18.40;9.20;;;;;;;3.42;80.21;97335.70;80780;1295;3026612;-70
2023/11/24 03:06:06;;;;;;;16.80;9.00;;;;;;;3.29;80.43;97325.50;82065;1295;3017935;-74
2023/11/24 03:08:34;;;;;;;16.80;10.10;;;;;;;3.03;81.29;97326.69;80822;1295;3049420;-72
2023/11/24 03:11:06;;;;;;;19.60;10.40;;;;;;;2.78;82.90;97324.59;82119;1294;3018467;-68
2023/11/24 03:13:33;;;;;;;17.70;9.90;;;;;;;2.73;83.38;97316.11;80861;1295;3068646;-73
2023/11/24 03:16:01;;;;;;;21.90;11.20;;;;;;;2.74;83.22;97319.13;82033;1298;3012767;-76
2023/11/24 03:18:28;;;;;;;18.30;8.50;;;;;;;2.77;83.37;97312.41;82072;1295;3011285;-71
2023/11/24 03:20:56;;;;;;;20.00;9.10;;;;;;;3.57;81.33;97297.02;80764;1295;3053746;-70
2023/11/24 03:23:23;;;;;;;15.80;8.40;;;;;;;3.94;79.21;97302.50;82056;1297;3012687;-73
2023/11/24 03:25:50;;;;;;;23.60;10.20;;;;;;;4.10;78.26;97298.31;82030;1297;3011281;-73
2023/11/24 03:28:21;;;;;;;23.50;10.50;;;;;;;3.72;78.26;97296.35;80831;1295;3025295;-75
2023/11/24 03:30:47;;;;;;;14.70;8.30;;;;;;;3.35;79.70;97296.20;82082;1295;3011395;-72
2023/11/24 03:33:16;;;;;;;14.20;7.80;;;;;;;3.25;80.58;97291.21;81503;1296;3011198;-69
2023/11/24 03:35:43;;;;;;;18.20;9.10;;;;;;;3.21;80.13;97286.08;82026;1295;3018321;-73
2023/11/24 03:38:11;;;;;;;16.10;9.40;;;;;;;2.90;81.66;97292.88;82018;1295;3011245;-73
2023/11/24 03:40:39;;;;;;;20.90;9.80;;;;;;;2.97;81.43;97279.10;80807;1295;3050981;-71
2023/11/24 03:43:06;;;;;;;18.00;9.70;;;;;;;2.85;81.94;97268.34;82072;1295;3013150;-75
2023/11/24 03:45:32;;;;;;;13.40;7.80;;;;;;;2.87;82.29;97270.58;82044;1295;3011698;-73
2023/11/24 03:48:02;;;;;;;13.30;7.30;;;;;;;3.11;81.85;97265.08;80709;1295;3026017;-70
2023/11/24 03:50:30;;;;;;;15.00;8.00;;;;;;;3.75;79.50;97254.99;82045;1295;3013037;-72
2023/11/24 03:52:56;;;;;;;14.90;8.00;;;;;;;3.86;78.55;97249.73;82029;1295;3011148;-72
2023/11/24 03:55:25;;;;;;;15.20;8.20;;;;;;;3.65;78.69;97249.05;80778;1300;3053104;-69
2023/11/24 03:57:52;;;;;;;19.60;9.00;;;;;;;3.42;79.57;97260.13;82081;1295;3012734;-72
2023/11/24 04:00:19;;;;;;;13.80;8.60;;;;;;;3.22;80.20;97247.40;82048;1295;3011218;-73
2023/11/24 04:02:47;;;;;;;15.30;8.20;;;;;;;3.17;80.40;97246.17;80713;1295;3055521;-75
2023/11/24 04:05:14;;;;;;;16.10;9.60;;;;;;;3.08;81.06;97246.74;82063;1295;3011250;-69
2023/11/24 04:07:42;;;;;;;19.40;9.20;;;;;;;3.01;81.18;97247.92;82048;1295;3011199;-71
2023/11/24 04:10:10;;;;;;;18.50;9.10;;;;;;;2.77;82.35;97243.59;80808;1297;3053731;-72
2023/11/24 04:12:37;;;;;;;11.50;6.20;;;;;;;2.82;82.52;97242.55;82039;1300;3018256;-69
2023/11/24 04:15:04;;;;;;;13.00;7.00;;;;;;;3.35;81.27;97236.48;82050;1295;3011552;-71
2023/11/24 04:17:33;;;;;;;13.30;7.80;;;;;;;3.97;79.41;97237.84;80706;1300;3054815;-69
2023/11/24 04:20:00;;;;;;;15.90;7.60;;;;;;;3.94;78.25;97240.90;82050;1298;3013029;-72
2023/11/24 04:22:27;;;;;;;16.50;8.40;;;;;;;3.60;78.46;97235.40;82050;1295;3011217;-70
2023/11/24 04:24:55;;;;;;;14.60;7.80;;;;;;;3.56;78.94;97226.14;80765;1300;3052780;-72
2023/11/24 04:27:22;;;;;;;19.30;9.50;;;;;;;3.42;79.24;97243.34;82007;1300;3011602;-68
2023/11/24 04:29:49;;;;;;;15.80;8.40;;;;;;;3.23;79.99;97239.07;81975;1295;3011402;-68
2023/11/24 04:32:17;;;;;;;15.50;8.10;;;;;;;2.95;81.04;97252.47;80780;1295;3025855;-75
2023/11/24 04:34:44;;;;;;;15.40;7.80;;;;;;;2.79;81.94;97230.35;82058;1295;3013069;-69
2023/11/24 04:37:11;;;;;;;17.30;8.70;;;;;;;2.73;82.29;97236.05;82049;1295;3011442;-72
2023/11/24 04:39:38;;;;;;;11.20;6.10;;;;;;;2.71;82.49;97239.98;80774;1295;3026322;-75
2023/11/24 04:42:06;;;;;;;14.60;8.40;;;;;;;3.16;81.50;97240.89;82063;1295;3011335;-69
2023/11/24 04:44:33;;;;;;;12.80;7.30;;;;;;;3.61;79.74;97231.00;82035;1295;3011381;-73
2023/11/24 04:47:01;;;;;;;12.50;6.90;;;;;;;3.95;78.48;97228.82;80815;1295;3056059;-71
2023/11/24 04:49:28;;;;;;;14.90;8.50;;;;;;;3.61;78.40;97242.77;82073;1294;3012530;-70
2023/11/24 04:51:54;;;;;;;12.70;8.00;;;;;;;3.39;79.25;97224.85;82046;1295;3011361;-72
2023/11/24 04:54:22;;;;;;;13.20;7.60;;;;;;;3.14;80.17;97229.73;80784;1297;3026187;-72
2023/11/24 04:56:49;;;;;;;13.70;7.70;;;;;;;3.00;80.93;97231.41;82053;1295;3013010;-75
2023/11/24 04:59:16;;;;;;;14.10;8.00;;;;;;;2.94;80.99;97228.13;82060;1295;3011332;-71
2023/11/24 05:01:44;;;;;;;14.10;7.90;;;;;;;2.73;82.03;97229.32;80775;1295;3025972;-72
2023/11/24 05:04:11;;;;;;;12.90;7.30;;;;;;;2.76;81.98;97229.84;82088;1295;3012859;-73
2023/11/24 05:06:38;;;;;;;18.60;8.70;;;;;;;2.55;82.79;97225.98;82044;1295;3011245;-75
2023/11/24 05:09:06;;;;;;;14.70;7.50;;;;;;;2.39;84.02;97222.48;80760;1300;3052072;-74
2023/11/24 05:11:34;;;;;;;13.20;6.80;;;;;;;2.96;82.81;97229.05;82061;1295;3012893;-71
2023/11/24 05:14:00;;;;;;;16.30;8.90;;;;;;;3.38;80.55;97228.19;82041;1295;3011303;-71
2023/11/24 05:16:28;;;;;;;16.00;8.40;;;;;;;3.69;79.25;97227.66;80819;1295;3055371;-66
2023/11/24 05:18:55;;;;;;;14.50;7.30;;;;;;;3.44;78.99;97227.64;82222;1295;3012437;-70
2023/11/24 05:21:21;;;;;;;15.00;8.40;;;;;;;3.26;79.68;97225.14;82182;1295;3011583;-69
2023/11/24 05:23:49;;;;;;;17.30;9.30;;;;;;;3.22;80.14;97218.85;80825;1295;3026761;-72
2023/11/24 05:26:16;;;;;;;17.50;8.70;;;;;;;3.06;80.77;97222.16;82111;1297;3012665;-73
2023/11/24 05:28:44;;;;;;;13.30;8.20;;;;;;;2.86;81.37;97225.52;82058;1295;3011579;-70
2023/11/24 05:31:12;;;;;;;16.40;7.90;;;;;;;2.86;81.30;97219.84;80776;1295;3055818;-72
2023/11/24 05:33:39;;;;;;;18.20;9.90;;;;;;;3.02;80.41;97224.52;82019;1296;3012790;-70
2023/11/24 05:36:09;;;;;;;18.60;10.50;;;;;;;2.92;80.84;97229.80;81970;1296;3011287;-69
2023/11/24 05:38:37;;;;;;;18.10;9.90;;;;;;;2.92;81.22;97224.25;80733;1297;3051472;-71
2023/11/24 05:41:05;;;;;;;20.40;10.00;;;;;;;2.73;81.97;97218.91;82006;1297;3018318;-77
2023/11/24 05:43:32;;;;;;;17.00;7.60;;;;;;;2.83;81.65;97225.23;81977;1295;3011318;-72
2023/11/24 05:46:00;;;;;;;14.80;7.60;;;;;;;3.20;81.20;97215.88;80756;1295;3057723;-71
2023/11/24 05:48:28;;;;;;;14.20;7.30;;;;;;;3.61;79.26;97224.02;81973;1296;3012495;-74
2023/11/24 05:50:56;;;;;;;13.20;7.30;;;;;;;3.63;78.63;97224.27;81991;1295;3011277;-68
2023/11/24 05:53:25;;;;;;;15.10;7.90;;;;;;;3.34;79.26;97220.51;80810;1295;3052386;-73
2023/11/24 05:55:55;;;;;;;12.90;7.70;;;;;;;3.00;81.26;97220.47;82063;1295;3012959;-74
2023/11/24 05:58:23;;;;;;;13.40;8.40;;;;;;;2.91;81.65;97214.88;80742;1295;3050691;-72
2023/11/24 06:00:50;;;;;;;12.60;7.60;;;;;;;2.85;81.86;97224.61;82038;1295;3012536;-73
2023/11/24 06:03:17;;;;;;;18.10;8.90;;;;;;;2.74;82.37;97230.14;82005;1295;3011395;-69
2023/11/24 06:05:46;;;;;;;13.50;7.80;;;;;;;2.78;82.57;97230.41;80733;1295;3050318;-73
2023/11/24 06:08:13;;;;;;;17.50;9.60;;;;;;;2.76;82.35;97228.05;82061;1295;3013110;-71
2023/11/24 06:10:40;;;;;;;14.20;7.80;;;;;;;2.58;83.70;97227.15;81995;1295;3011153;-72
2023/11/24 06:13:08;;;;;;;16.60;8.80;;;;;;;2.59;83.67;97226.91;80769;1295;3026358;-69
2023/11/24 06:15:35;;;;;;;14.40;7.50;;;;;;;2.55;84.18;97233.75;82022;1295;3010968;-75
2023/11/24 06:18:02;;;;;;;21.30;11.00;;;;;;;3.25;82.58;97227.48;81951;1296;3011127;-70
2023/11/24 06:20:30;;;;;;;18.00;10.40;;;;;;;3.75;79.81;97226.20;80739;1294;3049131;-75
2023/11/24 06:22:57;;;;;;;14.50;8.60;;;;;;;3.59;79.84;97216.38;82034;1297;3012972;-72
2023/11/24 06:25:23;;;;;;;25.50;13.60;;;;;;;3.74;79.26;97213.46;81959;1297;3011083;-71
2023/11/24 06:27:51;;;;;;;22.60;11.20;;;;;;;3.29;80.33;97212.65;80743;1295;3024944;-72
2023/11/24 06:30:18;;;;;;;19.10;10.90;;;;;;;3.37;80.42;97209.02;82014;1295;3012849;-70
2023/11/24 06:32:45;;;;;;;18.50;10.10;;;;;;;3.17;81.13;97211.02;82008;1296;3011439;-75
2023/11/24 06:35:15;;;;;;;20.40;10.50;;;;;;;2.91;82.56;97211.39;80733;1295;3025973;-70
2023/11/24 06:37:42;;;;;;;23.10;12.70;;;;;;;2.77;83.29;97203.27;82013;1295;3010956;-70
2023/11/24 06:40:11;;;;;;;40.30;12.90;;;;;;;2.60;84.50;97199.75;82030;1298;3011391;-70
2023/11/24 06:42:40;;;;;;;24.60;11.50;;;;;;;2.68;84.31;97195.73;80752;1295;3052288;-71
2023/11/24 06:45:12;;;;;;;24.50;9.70;;;;;;;2.63;84.49;97182.57;82042;1295;3012441;-71
2023/11/24 06:47:41;;;;;;;17.90;8.10;;;;;;;3.16;83.74;97182.22;80764;1295;3051876;-69
2023/11/24 06:50:09;;;;;;;14.00;8.50;;;;;;;3.28;81.87;97177.64;82029;1297;3011546;-69
2023/11/24 06:52:39;;;;;;;14.40;8.30;;;;;;;3.18;82.15;97171.05;81515;1295;3011172;-72
2023/11/24 06:55:06;;;;;;;20.80;9.00;;;;;;;3.19;82.06;97164.93;82053;1295;3012614;-71
2023/11/24 06:57:33;;;;;;;17.80;9.80;;;;;;;2.99;83.00;97165.38;81961;1295;3011216;-71
2023/11/24 07:00:03;;;;;;;19.90;10.20;;;;;;;3.07;82.96;97162.64;80741;1295;3055943;-72
2023/11/24 07:02:31;;;;;;;17.10;10.70;;;;;;;3.04;82.85;97152.27;82011;1295;3011451;-69
2023/11/24 07:05:00;;;;;;;20.40;10.80;;;;;;;2.91;83.56;97149.65;81476;1295;3011304;-73
2023/11/24 07:07:28;;;;;;;19.30;10.20;;;;;;;2.74;84.84;97143.50;82056;1294;3012654;-75
2023/11/24 07:09:55;;;;;;;14.20;8.90;;;;;;;2.70;85.34;97145.48;82032;1297;3011440;-73
2023/11/24 07:12:23;;;;;;;14.10;8.20;;;;;;;2.80;85.17;97141.05;80787;1295;3067431;-74
2023/11/24 07:14:50;;;;;;;15.60;8.70;;;;;;;3.20;84.29;97139.77;82022;1295;3012538;-71
2023/11/24 07:17:16;;;;;;;18.50;9.40;;;;;;;3.73;81.78;97123.62;81999;1295;3011306;-76
2023/11/24 07:19:44;;;;;;;15.30;9.30;;;;;;;3.96;80.58;97128.00;80724;1295;3026395;-74
2023/11/24 07:22:11;;;;;;;18.40;9.80;;;;;;;3.85;80.83;97116.80;82065;1297;3013125;-71
2023/11/24 07:24:38;;;;;;;21.30;12.50;;;;;;;3.73;80.47;97120.05;82029;1297;3011451;-70
2023/11/24 07:27:06;;;;;;;17.00;10.60;;;;;;;3.50;81.59;97124.59;80721;1295;3026801;-72
2023/11/24 07:29:33;;;;;;;69.90;22.90;;;;;;;3.31;82.68;97124.35;82032;1295;3012730;-75
2023/11/24 07:32:02;;;;;;;56.60;19.60;;;;;;;3.43;82.33;97120.05;82040;1295;3011111;-74
2023/11/24 07:34:32;;;;;;;50.00;16.90;;;;;;;3.59;81.16;97113.73;80754;1295;3053154;-70
2023/11/24 07:37:02;;;;;;;28.50;13.10;;;;;;;3.37;81.77;97116.10;82064;1299;3011432;-67
2023/11/24 07:39:30;;;;;;;16.10;9.70;;;;;;;3.43;81.66;97113.98;80772;1296;3051807;-70
2023/11/24 07:41:58;;;;;;;17.10;10.50;;;;;;;3.32;81.82;97099.33;82045;1294;3012373;-70
2023/11/24 07:44:31;;;;;;;15.50;7.90;;;;;;;3.42;81.49;97095.05;82039;1295;3011382;-76
2023/11/24 07:46:59;;;;;;;19.40;10.80;;;;;;;4.22;79.84;97099.91;80725;1295;3056481;-69
2023/11/24 07:49:26;;;;;;;19.00;11.20;;;;;;;4.47;77.15;97089.46;82053;1295;3012911;-72
2023/11/24 07:51:53;;;;;;;20.20;10.30;;;;;;;4.63;76.44;97084.48;82022;1295;3011422;-68
2023/11/24 07:54:22;;;;;;;12.40;7.90;;;;;;;4.48;76.67;97094.26;80773;1295;3052217;-69
2023/11/24 07:56:48;;;;;;;17.90;10.10;;;;;;;4.28;76.40;97090.83;82037;1294;3012602;-68
2023/11/24 07:59:15;;;;;;;20.50;11.30;;;;;;;3.98;77.28;97100.11;82001;1295;3011541;-66
2023/11/24 08:01:43;;;;;;;21.50;11.30;;;;;;;3.91;77.71;97094.17;80739;1295;3026116;-68
2023/11/24 08:04:09;;;;;;;18.40;9.40;;;;;;;3.76;78.37;97084.02;82038;1297;3018709;-68
2023/11/24 08:06:36;;;;;;;14.60;9.00;;;;;;;3.72;78.39;97080.09;81988;1299;3011404;-66
2023/11/24 08:09:07;;;;;;;16.10;6.70;;;;;;;3.78;78.20;97084.52;80777;1296;3026287;-69
2023/11/24 08:11:34;;;;;;;16.60;8.50;;;;;;;3.91;77.54;97071.13;82023;1297;3011219;-73
2023/11/24 08:14:03;;;;;;;13.70;8.60;;;;;;;3.78;78.19;97083.00;81512;1295;3011344;-72
2023/11/24 08:16:30;;;;;;;16.30;8.80;;;;;;;3.66;78.50;97080.89;82043;1295;3018574;-69
2023/11/24 08:18:57;;;;;;;17.20;9.10;;;;;;;3.57;79.50;97068.02;82027;1295;3011581;-68
2023/11/24 08:21:25;;;;;;;20.50;9.30;;;;;;;3.56;79.14;97070.46;80733;1294;3026194;-67
2023/11/24 08:23:52;;;;;;;20.00;9.60;;;;;;;3.68;79.11;97058.93;82000;1295;3013073;-68
2023/11/24 08:26:19;;;;;;;19.40;11.10;;;;;;;3.77;78.47;97046.51;82012;1297;3011289;-68
2023/11/24 08:28:48;;;;;;;31.80;12.80;;;;;;;3.56;79.26;97049.37;80780;1295;3026329;-67
2023/11/24 08:31:16;;;;;;;79.10;25.40;;;;;;;3.65;79.21;97053.41;82047;1295;3013259;-70
2023/11/24 08:33:43;;;;;;;131.20;31.20;;;;;;;3.46;79.99;97040.38;82003;1295;3011514;-67
2023/11/24 08:36:14;;;;;;;57.70;21.00;;;;;;;4.09;78.68;97029.03;80754;1295;3053193;-70
2023/11/24 08:38:41;;;;;;;21.40;9.80;;;;;;;4.56;76.47;97029.86;81954;1295;3011295;-69
2023/11/24 08:41:13;;;;;;;19.60;9.40;;;;;;;4.52;75.78;97030.79;81501;1295;3011658;-67
2023/11/24 08:43:40;;;;;;;16.00;9.20;;;;;;;4.42;76.21;97018.20;82046;1296;3011148;-68
2023/11/24 08:46:09;;;;;;;18.00;9.40;;;;;;;4.23;77.22;97015.82;81507;1295;3011986;-67
2023/11/24 08:48:36;;;;;;;13.70;8.50;;;;;;;4.26;77.18;97014.94;82044;1295;3018411;-74
2023/11/24 08:51:04;;;;;;;15.90;8.70;;;;;;;4.42;76.49;97022.71;82007;1295;3011514;-73
2023/11/24 08:53:34;;;;;;;26.60;10.50;;;;;;;4.43;76.09;97034.45;80695;1297;3053317;-71
2023/11/24 08:56:04;;;;;;;19.10;9.90;;;;;;;4.29;76.91;97031.52;82017;1295;3012742;-73
2023/11/24 08:58:32;;;;;;;22.60;11.70;;;;;;;4.17;77.40;97036.86;80753;1297;3052201;-67
2023/11/24 09:00:59;;;;;;;33.40;13.50;;;;;;;4.09;77.74;97035.58;82037;1296;3017908;-74
2023/11/24 09:03:25;;;;;;;20.70;10.60;;;;;;;4.03;78.35;97029.44;81990;1295;3010908;-72
2023/11/24 09:05:56;;;;;;;20.10;10.60;;;;;;;4.10;77.85;97025.42;80740;1295;3025998;-72
2023/11/24 09:08:24;;;;;;;15.70;9.90;;;;;;;4.01;78.76;97026.29;82035;1295;3011322;-69
2023/11/24 09:10:52;;;;;;;17.50;9.80;;;;;;;3.97;78.89;97030.58;80746;1297;3026877;-70
2023/11/24 09:13:19;;;;;;;19.20;10.40;;;;;;;4.08;78.28;97020.52;82022;1295;3012968;-74
2023/11/24 09:15:45;;;;;;;16.70;8.60;;;;;;;4.06;78.22;97018.78;82024;1295;3011314;-72
2023/11/24 09:18:13;;;;;;;15.10;8.70;;;;;;;4.03;78.58;97008.13;80760;1295;3026440;-71
2023/11/24 09:20:40;;;;;;;18.30;9.80;;;;;;;3.96;78.93;97007.52;82032;1295;3012738;-68
2023/11/24 09:23:07;;;;;;;14.90;8.40;;;;;;;3.88;79.60;97002.92;82011;1297;3011108;-68
2023/11/24 09:25:35;;;;;;;11.80;6.80;;;;;;;4.39;78.64;96999.01;80741;1295;3026481;-70
2023/11/24 09:28:01;;;;;;;13.80;8.30;;;;;;;4.75;76.83;97012.29;82022;1297;3018008;-72
2023/11/24 09:30:28;;;;;;;48.50;18.70;;;;;;;4.96;75.55;97014.65;82018;1296;3011619;-73
2023/11/24 09:32:56;;;;;;;22.30;11.50;;;;;;;4.99;75.90;97026.60;80795;1295;3026478;-68
2023/11/24 09:35:23;;;;;;;19.30;10.10;;;;;;;4.72;75.90;97039.75;82053;1295;3012755;-70
2023/11/24 09:37:52;;;;;;;19.30;10.30;;;;;;;4.60;76.24;97039.42;82027;1295;3011503;-70
2023/11/24 09:40:23;;;;;;;18.30;10.10;;;;;;;4.39;76.81;97030.05;80758;1295;3052492;-70
2023/11/24 09:42:50;;;;;;;18.90;9.20;;;;;;;4.28;77.18;97026.22;82016;1295;3011344;-71
2023/11/24 09:45:21;;;;;;;21.30;10.00;;;;;;;4.34;77.31;97020.57;81509;1297;3011325;-72
2023/11/24 09:47:51;;;;;;;15.30;8.80;;;;;;;4.15;77.97;97007.77;82044;1299;3013042;-70
2023/11/24 09:50:23;;;;;;;27.00;11.80;;;;;;;4.08;78.37;97024.33;80764;1295;3069177;-71
2023/11/24 09:52:51;;;;;;;19.70;10.70;;;;;;;4.01;78.75;97025.24;79277;1295;6770710;-71
2023/11/24 09:55:19;;;;;;;27.80;12.20;;;;;;;3.99;78.90;97011.36;80761;1295;3055381;-73
2023/11/24 09:57:45;;;;;;;26.50;11.60;;;;;;;4.13;78.42;97024.55;82049;1294;3012795;-71
2023/11/24 10:00:15;;;;;;;23.80;10.20;;;;;;;4.19;78.44;97029.80;82020;1295;3011333;-72
2023/11/24 10:02:43;;;;;;;22.70;12.00;;;;;;;4.27;77.61;97023.53;80702;1300;3051870;-73
2023/11/24 10:05:17;;;;;;;22.30;10.50;;;;;;;4.12;78.53;97034.46;81985;1297;3013297;-72
2023/11/24 10:07:50;;;;;;;16.80;9.80;;;;;;;4.29;77.74;97037.41;80791;1295;3051683;-71
2023/11/24 10:10:22;;;;;;;;;;;;;;;4.21;77.88;97033.11;82034;1296;3011459;-74
2023/11/24 10:12:53;;;;;;;20.50;10.40;;;;;;;4.18;77.67;97042.90;80763;1295;3049930;-76
2023/11/24 10:15:23;;;;;;;23.10;11.30;;;;;;;4.19;77.81;97020.78;81983;1295;3012774;-71
2023/11/24 10:17:51;;;;;;;14.30;8.20;;;;;;;4.16;77.97;97018.77;80757;1295;3050443;-71
2023/11/24 10:20:18;;;;;;;15.40;8.80;;;;;;;4.21;77.73;97019.46;82063;1295;3013031;-72
2023/11/24 10:22:49;;;;;;;17.60;6.90;;;;;;;4.38;77.40;97022.72;82012;1297;3011326;-72
2023/11/24 10:25:20;;;;;;;14.10;7.40;;;;;;;4.85;76.43;97026.08;80764;1295;3051970;-71
2023/11/24 10:27:47;;;;;;;16.70;9.00;;;;;;;5.36;74.27;97024.64;82008;1295;3011447;-73
2023/11/24 10:30:18;;;;;;;15.20;8.00;;;;;;;5.44;73.95;97036.19;80753;1295;3026947;-71
2023/11/24 10:32:48;;;;;;;15.50;8.00;;;;;;;5.35;73.70;97047.61;82049;1294;3011450;-74
2023/11/24 10:35:16;;;;;;;19.10;8.90;;;;;;;5.35;73.49;97046.94;80749;1295;3049815;-75
2023/11/24 10:37:44;;;;;;;19.30;9.00;;;;;;;5.02;74.63;97046.35;82077;1295;3012590;-75
2023/11/24 10:40:14;;;;;;;24.80;11.00;;;;;;;4.80;75.42;97032.79;82005;1300;3011360;-71
2023/11/24 10:42:47;;;;;;;26.80;11.20;;;;;;;4.77;75.51;97030.59;80749;1295;3052246;-75
2023/11/24 10:45:20;;;;;;;48.40;16.70;;;;;;;4.96;75.03;97039.48;82018;1295;3011324;-74
2023/11/24 10:47:57;;;;;;;39.70;14.20;;;;;;;4.67;76.19;97037.00;80783;1295;3050243;-78
2023/11/24 10:50:29;;;;;;;29.30;11.90;;;;;;;4.66;76.58;97031.91;80691;1295;3053252;-73
2023/11/24 10:53:08;;;;;;;25.80;11.40;;;;;;;4.73;76.02;97021.95;81981;1295;3011379;-72
2023/11/24 10:55:37;;;;;;;25.10;11.00;;;;;;;4.62;76.70;97023.16;80784;1297;3051942;-71
2023/11/24 10:58:07;;;;;;;20.90;10.30;;;;;;;4.68;76.42;97034.52;81918;1297;3012714;-72
2023/11/24 11:00:37;;;;;;;16.80;10.50;;;;;;;4.61;76.87;97044.36;80627;1295;3069129;-73
2023/11/24 11:03:05;;;;;;;19.60;9.70;;;;;;;4.67;76.72;97041.56;82044;1295;3012854;-75
2023/11/24 11:05:57;;;;;;;20.30;10.70;;;;;;;4.70;76.46;97042.34;80741;1295;3027944;-72
2023/11/24 11:08:34;;;;;;;16.90;9.40;;;;;;;4.72;76.67;97036.63;80709;1295;3048214;-71
2023/11/24 11:11:12;;;;;;;22.60;9.30;;;;;;;4.59;77.22;97040.17;80705;1295;3052721;-73
2023/11/24 11:15:28;;;;;;;17.00;9.50;;;;;;;4.65;77.18;97042.00;80152;1299;3012074;-69
2023/11/24 11:18:15;;;;;;;22.70;10.70;;;;;;;4.46;77.61;97032.69;77921;1304;3053700;-73
2023/11/24 11:20:44;;;;;;;17.30;9.00;;;;;;;4.47;77.93;97042.63;78111;1300;3050311;-71